< < Back
Terminal Aerodrome Forecast


Current Version              Previous Versions:   1  2  3  4  5  6  7  8  9  

Terminal Aerodrome Forecast

449
FTUS42 KJAX 281400 AAA
TAFGNV
TAF AMD
KGNV 281410Z 2814/2912 02010G20KT P6SM SKC
     FM282200 05004KT P6SM FEW250
     FM290200 00000KT P6SM SKC=



Latest METAR

180
SAUS70 KWBC 281400 RRJ
MTRGNV
METAR KGNV 281353Z 02011G17KT 10SM CLR 05/00 A3037 RMK AO2 SLP284
T00500000


USA.gov is the U.S. government's official web portal to all federal, state and local government web resources and services.